createdAt,value
2023-05-14T00:01:19.806Z,34.99
2023-05-14T00:03:48.216Z,35.23
2023-05-14T00:06:17.007Z,35.02
2023-05-14T00:08:45.419Z,34.89
2023-05-14T00:11:14.045Z,35.24
2023-05-14T00:13:42.535Z,35.02
2023-05-14T00:16:12.826Z,35.09
2023-05-14T00:18:41.501Z,34.86
2023-05-14T00:21:09.925Z,34.89
2023-05-14T00:23:38.519Z,35.04
2023-05-14T00:26:06.903Z,34.58
2023-05-14T00:28:35.434Z,34.68
2023-05-14T00:31:04.075Z,34.59
2023-05-14T00:33:33.836Z,34.59
2023-05-14T00:36:02.468Z,34.57
2023-05-14T00:38:30.820Z,34.54
2023-05-14T00:40:59.144Z,34.77
2023-05-14T00:43:27.654Z,34.92
2023-05-14T00:45:59.034Z,34.66
2023-05-14T00:48:27.699Z,34.22
2023-05-14T00:50:57.416Z,34.62
2023-05-14T00:53:26.293Z,33.79
2023-05-14T00:55:54.687Z,34.83
2023-05-14T00:58:23.055Z,34.39
2023-05-14T01:00:52.257Z,34.85
2023-05-14T01:03:20.813Z,34.56
2023-05-14T01:05:58.637Z,34.68
2023-05-14T01:08:33.802Z,33.87
2023-05-14T01:11:06.436Z,34.18
2023-05-14T01:13:40.120Z,33.90
2023-05-14T01:16:09.091Z,34.63
2023-05-14T01:18:37.560Z,34.18
2023-05-14T01:21:08.224Z,34.12
2023-05-14T01:23:38.180Z,34.28
2023-05-14T01:26:06.779Z,33.89
2023-05-14T01:28:35.342Z,33.90
2023-05-14T01:31:06.460Z,33.95
2023-05-14T01:33:35.284Z,34.33
2023-05-14T01:36:03.664Z,34.20
2023-05-14T01:38:34.333Z,33.98
2023-05-14T01:41:04.582Z,33.98
2023-05-14T01:43:33.291Z,34.06
2023-05-14T01:46:01.654Z,33.95
2023-05-14T01:48:30.353Z,33.74
2023-05-14T01:50:58.934Z,34.09
2023-05-14T01:53:27.327Z,33.05
2023-05-14T01:55:55.936Z,33.51
2023-05-14T01:58:25.780Z,33.51
2023-05-14T02:00:54.187Z,33.41
2023-05-14T02:03:22.984Z,33.38
2023-05-14T02:05:51.392Z,33.27
2023-05-14T02:08:19.993Z,32.96
2023-05-14T02:10:48.385Z,33.10
2023-05-14T02:13:17.857Z,33.06
2023-05-14T02:15:47.661Z,33.12
2023-05-14T02:18:16.250Z,33.23
2023-05-14T02:20:44.717Z,32.92
2023-05-14T02:23:13.049Z,32.86
2023-05-14T02:25:41.564Z,33.23
2023-05-14T02:28:10.087Z,33.13
2023-05-14T02:30:38.721Z,32.88
2023-05-14T02:33:08.681Z,32.86
2023-05-14T02:35:37.480Z,32.75
2023-05-14T02:38:09.089Z,33.12
2023-05-14T02:40:38.663Z,33.01
2023-05-14T02:43:07.325Z,32.92
2023-05-14T02:45:35.730Z,32.87
2023-05-14T02:48:04.223Z,32.79
2023-05-14T02:50:34.178Z,33.11
2023-05-14T02:53:02.850Z,32.70
2023-05-14T02:55:31.531Z,32.57
2023-05-14T02:57:59.894Z,32.71
2023-05-14T03:00:28.277Z,32.57
2023-05-14T03:02:57.261Z,32.63
2023-05-14T03:05:26.332Z,32.69
2023-05-14T03:07:56.180Z,32.70
2023-05-14T03:10:24.809Z,32.61
2023-05-14T03:12:53.965Z,32.97
2023-05-14T03:15:22.376Z,32.57
2023-05-14T03:17:50.985Z,32.69
2023-05-14T03:20:19.927Z,32.64
2023-05-14T03:22:48.335Z,32.83
2023-05-14T03:25:19.001Z,32.93
2023-05-14T03:27:47.437Z,32.81
2023-05-14T03:30:17.565Z,32.69
2023-05-14T03:32:46.126Z,32.69
2023-05-14T03:35:14.666Z,32.59
2023-05-14T03:37:43.217Z,32.62
2023-05-14T03:40:12.689Z,32.86
2023-05-14T03:42:42.438Z,32.50
2023-05-14T03:45:11.936Z,32.38
2023-05-14T03:47:40.354Z,32.67
2023-05-14T03:50:10.613Z,32.72
2023-05-14T03:52:39.173Z,32.77
2023-05-14T03:55:08.715Z,33.08
2023-05-14T03:57:37.245Z,33.36
2023-05-14T04:00:08.890Z,32.90
2023-05-14T04:02:37.393Z,33.54
2023-05-14T04:05:06.422Z,33.20
2023-05-14T04:07:34.784Z,33.13
2023-05-14T04:10:04.712Z,33.56
2023-05-14T04:12:33.259Z,33.68
2023-05-14T04:15:02.345Z,33.33
2023-05-14T04:17:33.006Z,33.40
2023-05-14T04:20:02.587Z,33.52
2023-05-14T04:22:31.260Z,33.33
2023-05-14T04:24:59.632Z,33.01
2023-05-14T04:27:28.224Z,33.34
2023-05-14T04:29:56.811Z,33.17
2023-05-14T04:32:25.979Z,33.04
2023-05-14T04:34:56.077Z,33.14
2023-05-14T04:37:24.431Z,33.66
2023-05-14T04:39:52.993Z,33.64
2023-05-14T04:42:21.339Z,33.63
2023-05-14T04:44:49.874Z,33.75
2023-05-14T04:47:18.295Z,33.51
2023-05-14T04:49:46.691Z,33.82
2023-05-14T04:52:16.525Z,33.66
2023-05-14T04:54:45.029Z,33.59
2023-05-14T04:57:13.890Z,33.86
2023-05-14T04:59:42.300Z,33.53
2023-05-14T05:02:10.853Z,33.68
2023-05-14T05:04:39.757Z,34.00
2023-05-14T05:07:08.211Z,33.98
2023-05-14T05:09:38.194Z,33.86
2023-05-14T05:12:07.970Z,34.10
2023-05-14T05:14:36.316Z,33.80
2023-05-14T05:17:04.914Z,33.78
2023-05-14T05:19:43.067Z,34.05
2023-05-14T05:22:12.683Z,33.78
2023-05-14T05:24:42.558Z,33.78
2023-05-14T05:27:10.879Z,33.97
2023-05-14T05:29:39.513Z,33.77
2023-05-14T05:32:09.111Z,34.10
2023-05-14T05:34:37.802Z,33.90
2023-05-14T05:37:06.428Z,34.02
2023-05-14T05:39:35.303Z,33.95
2023-05-14T05:42:07.179Z,33.95
2023-05-14T05:44:35.625Z,33.82
2023-05-14T05:47:04.397Z,34.06
2023-05-14T05:49:33.009Z,34.23
2023-05-14T05:52:01.392Z,33.83
2023-05-14T05:54:29.943Z,33.77
2023-05-14T05:56:58.425Z,33.86
2023-05-14T05:59:28.418Z,34.15
2023-05-14T06:01:56.830Z,33.90
2023-05-14T06:04:25.336Z,34.08
2023-05-14T06:06:53.920Z,33.98
2023-05-14T06:09:22.323Z,34.23
2023-05-14T06:11:51.042Z,34.13
2023-05-14T06:14:19.383Z,34.21
2023-05-14T06:16:49.186Z,33.72
2023-05-14T06:19:18.078Z,34.12
2023-05-14T06:21:46.598Z,33.92
2023-05-14T06:24:15.161Z,34.25
2023-05-14T06:26:43.536Z,34.46
2023-05-14T06:29:12.081Z,34.15
2023-05-14T06:31:40.697Z,34.77
2023-05-14T06:34:10.741Z,34.61
2023-05-14T06:36:39.237Z,34.39
2023-05-14T06:39:07.613Z,34.36
2023-05-14T06:41:36.032Z,34.40
2023-05-14T06:44:04.932Z,34.16
2023-05-14T06:46:33.307Z,34.34
2023-05-14T06:49:01.821Z,34.45
2023-05-14T06:51:32.640Z,34.16
2023-05-14T06:54:00.997Z,34.33
2023-05-14T06:56:29.568Z,35.06
2023-05-14T06:58:57.972Z,34.24
2023-05-14T07:01:27.141Z,34.29
2023-05-14T07:03:55.568Z,34.69
2023-05-14T07:06:24.095Z,34.43
2023-05-14T07:08:53.926Z,34.50
2023-05-14T07:11:23.181Z,34.48
2023-05-14T07:13:51.860Z,34.67
2023-05-14T07:16:20.252Z,35.02
2023-05-14T07:18:48.656Z,34.92
2023-05-14T07:21:17.188Z,35.20
2023-05-14T07:23:45.763Z,35.17
2023-05-14T07:26:15.886Z,34.96
2023-05-14T07:28:44.211Z,35.07
2023-05-14T07:31:12.889Z,34.86
2023-05-14T07:33:41.365Z,34.78
2023-05-14T07:36:10.121Z,34.74
2023-05-14T07:38:38.684Z,35.06
2023-05-14T07:41:07.876Z,34.93
2023-05-14T07:43:39.001Z,35.54
2023-05-14T07:46:07.671Z,34.92
2023-05-14T07:48:36.240Z,35.47
2023-05-14T07:51:04.968Z,35.36
2023-05-14T07:53:33.285Z,35.16
2023-05-14T07:56:02.023Z,35.39
2023-05-14T07:58:30.446Z,35.42
2023-05-14T08:01:01.542Z,35.50
2023-05-14T08:03:30.203Z,35.59
2023-05-14T08:05:58.632Z,35.51
2023-05-14T08:08:27.645Z,35.29
2023-05-14T08:10:56.104Z,35.25
2023-05-14T08:13:24.843Z,35.99
2023-05-14T08:15:53.289Z,35.40
2023-05-14T08:18:23.065Z,35.20
2023-05-14T08:20:51.644Z,35.46
2023-05-14T08:23:20.191Z,35.09
2023-05-14T08:25:48.668Z,35.11
2023-05-14T08:28:17.042Z,35.06
2023-05-14T08:30:45.956Z,35.35
2023-05-14T08:33:14.564Z,35.34
2023-05-14T08:35:44.370Z,35.72
2023-05-14T08:38:12.708Z,35.84
2023-05-14T08:40:41.069Z,35.94
2023-05-14T08:43:09.662Z,35.41
2023-05-14T08:45:38.126Z,35.78
2023-05-14T08:48:08.911Z,35.26
2023-05-14T08:50:37.647Z,35.29
2023-05-14T08:53:07.427Z,34.59
2023-05-14T08:55:36.119Z,34.91
2023-05-14T08:58:04.517Z,35.13
2023-05-14T09:00:33.087Z,35.08
2023-05-14T09:03:01.589Z,35.25
2023-05-14T09:05:30.046Z,35.26
2023-05-14T09:07:58.550Z,34.94
2023-05-14T09:10:28.434Z,34.96
2023-05-14T09:12:56.787Z,35.12
2023-05-14T09:15:25.226Z,34.62
2023-05-14T09:17:53.611Z,34.55
2023-05-14T09:20:22.909Z,33.60
2023-05-14T09:22:54.744Z,34.89
2023-05-14T09:25:29.108Z,34.25
2023-05-14T09:27:58.992Z,34.88
2023-05-14T09:30:27.794Z,35.58
2023-05-14T09:32:56.499Z,35.34
2023-05-14T09:35:25.808Z,35.83
2023-05-14T09:37:55.524Z,35.09
2023-05-14T09:40:25.405Z,35.21
2023-05-14T09:42:55.463Z,35.29
2023-05-14T09:45:24.218Z,35.48
2023-05-14T09:47:53.490Z,35.32
2023-05-14T09:50:22.432Z,35.41
2023-05-14T09:52:51.076Z,35.61
2023-05-14T09:55:20.532Z,35.19
2023-05-14T09:57:48.912Z,35.42
2023-05-14T10:00:19.769Z,35.29
2023-05-14T10:02:48.366Z,35.05
2023-05-14T10:05:17.845Z,34.88
2023-05-14T10:07:49.085Z,34.77
2023-05-14T10:10:20.365Z,34.94
2023-05-14T10:12:53.484Z,34.99
2023-05-14T10:15:26.867Z,35.08
2023-05-14T10:17:57.410Z,35.24
2023-05-14T10:20:26.696Z,35.05
2023-05-14T10:22:55.287Z,34.85
2023-05-14T10:25:24.139Z,34.66
2023-05-14T10:27:52.646Z,35.06
2023-05-14T10:30:24.450Z,34.75
2023-05-14T10:33:08.331Z,34.58
2023-05-14T10:36:05.168Z,34.88
2023-05-14T10:38:34.799Z,34.64
2023-05-14T10:41:04.295Z,34.95
2023-05-14T10:43:37.683Z,34.71
2023-05-14T10:46:07.946Z,34.87
2023-05-14T10:48:36.525Z,35.12
2023-05-14T10:51:05.092Z,34.97
2023-05-14T10:53:37.953Z,34.83
2023-05-14T10:56:07.570Z,34.94
2023-05-14T10:58:38.426Z,34.69
2023-05-14T11:01:09.284Z,34.66
2023-05-14T11:03:42.419Z,34.39
2023-05-14T11:06:11.854Z,34.37
2023-05-14T11:08:40.591Z,34.59
2023-05-14T11:11:10.420Z,34.66
2023-05-14T11:13:38.869Z,34.29
2023-05-14T11:16:21.762Z,33.95
2023-05-14T11:18:55.855Z,33.71
2023-05-14T11:21:24.482Z,34.25
2023-05-14T11:23:52.902Z,33.93
2023-05-14T11:26:21.827Z,33.96
2023-05-14T11:28:50.285Z,34.34
2023-05-14T11:31:20.239Z,34.43
2023-05-14T11:33:48.991Z,34.21
2023-05-14T11:36:17.493Z,34.06
2023-05-14T11:38:50.841Z,34.28
2023-05-14T11:41:21.096Z,34.34
2023-05-14T11:43:49.496Z,34.18
2023-05-14T11:46:20.026Z,34.44
2023-05-14T11:48:49.061Z,34.09
2023-05-14T11:51:17.532Z,34.08
2023-05-14T11:53:47.608Z,33.99
2023-05-14T11:56:16.309Z,34.14
2023-05-14T11:58:50.169Z,33.77
2023-05-14T12:01:19.957Z,34.39
2023-05-14T12:03:48.590Z,33.96
2023-05-14T12:06:17.084Z,33.38
2023-05-14T12:08:45.940Z,33.45
2023-05-14T12:11:14.566Z,34.22
2023-05-14T12:13:42.941Z,33.75
2023-05-14T12:16:11.912Z,33.83
2023-05-14T12:18:41.742Z,33.65
2023-05-14T12:21:12.235Z,33.96
2023-05-14T12:23:40.753Z,33.91
2023-05-14T12:26:10.345Z,33.17
2023-05-14T12:28:43.492Z,33.25
2023-05-14T12:31:12.371Z,33.55
2023-05-14T12:33:42.218Z,33.74
2023-05-14T12:36:21.167Z,33.74
2023-05-14T12:38:50.489Z,33.16
2023-05-14T12:41:19.101Z,33.58
2023-05-14T12:43:48.598Z,33.55
2023-05-14T12:46:17.323Z,34.01
2023-05-14T12:48:47.319Z,33.31
2023-05-14T12:51:15.870Z,33.08
2023-05-14T12:53:44.575Z,33.16
2023-05-14T12:56:13.108Z,32.31
2023-05-14T12:58:41.787Z,32.00
2023-05-14T13:01:10.631Z,33.09
2023-05-14T13:03:39.297Z,33.15
2023-05-14T13:06:09.384Z,32.24
2023-05-14T13:08:38.079Z,32.81
2023-05-14T13:11:06.769Z,32.29
2023-05-14T13:13:35.121Z,32.41
2023-05-14T13:16:03.746Z,32.87
2023-05-14T13:18:32.272Z,32.51
2023-05-14T13:21:00.713Z,32.82
2023-05-14T13:23:30.603Z,32.56
2023-05-14T13:25:58.984Z,32.58
2023-05-14T13:28:27.560Z,32.48
2023-05-14T13:31:09.486Z,32.23
2023-05-14T13:33:39.603Z,32.43
2023-05-14T13:36:09.283Z,32.55
2023-05-14T13:38:39.171Z,32.08
2023-05-14T13:41:07.675Z,32.20
2023-05-14T13:43:36.658Z,32.20
2023-05-14T13:46:06.148Z,32.06
2023-05-14T13:48:34.574Z,32.22
2023-05-14T13:51:02.957Z,32.36
2023-05-14T13:53:31.716Z,31.76
2023-05-14T13:56:01.911Z,31.84
2023-05-14T13:58:30.546Z,31.82
2023-05-14T14:00:58.954Z,32.13
2023-05-14T14:03:27.413Z,32.10
2023-05-14T14:05:55.860Z,31.90
2023-05-14T14:08:24.699Z,32.04
2023-05-14T14:10:55.376Z,32.48
2023-05-14T14:13:25.677Z,32.00
2023-05-14T14:15:54.199Z,32.54
2023-05-14T14:18:22.727Z,32.41
2023-05-14T14:20:51.095Z,31.93
2023-05-14T14:23:19.665Z,32.46
2023-05-14T14:25:48.571Z,32.20
2023-05-14T14:28:17.237Z,32.57
2023-05-14T14:30:47.257Z,32.97
2023-05-14T14:33:15.838Z,32.60
2023-05-14T14:35:45.053Z,33.06
2023-05-14T14:38:14.180Z,33.58
2023-05-14T14:40:42.765Z,33.71
2023-05-14T14:43:11.279Z,33.12
2023-05-14T14:45:39.765Z,33.13
2023-05-14T14:48:31.730Z,33.73
2023-05-14T14:51:00.173Z,33.25
2023-05-14T14:53:28.633Z,33.20
2023-05-14T14:55:57.167Z,33.38
2023-05-14T14:58:26.127Z,33.36
2023-05-14T15:00:55.583Z,33.42
2023-05-14T15:03:24.241Z,33.45
2023-05-14T15:05:54.367Z,33.85
2023-05-14T15:08:26.762Z,33.65
2023-05-14T15:10:55.500Z,33.90
2023-05-14T15:13:24.890Z,33.67
2023-05-14T15:15:53.402Z,33.67
2023-05-14T15:18:21.861Z,33.65
2023-05-14T15:20:50.871Z,33.91
2023-05-14T15:23:20.675Z,33.83
2023-05-14T15:25:49.718Z,33.91
2023-05-14T15:28:18.326Z,34.10
2023-05-14T15:30:48.436Z,34.20
2023-05-14T15:33:19.340Z,34.42
2023-05-14T15:35:48.118Z,34.31
2023-05-14T15:38:16.811Z,34.51
2023-05-14T15:40:46.655Z,34.28
2023-05-14T15:43:15.158Z,34.62
2023-05-14T15:45:45.708Z,34.28
2023-05-14T15:48:14.209Z,34.20
2023-05-14T15:50:42.988Z,34.05
2023-05-14T15:53:11.381Z,33.90
2023-05-14T15:55:39.851Z,33.16
2023-05-14T15:58:10.037Z,33.13
2023-05-14T16:00:38.405Z,33.01
2023-05-14T16:03:07.387Z,32.90
2023-05-14T16:05:36.582Z,32.91
2023-05-14T16:08:05.447Z,33.00
2023-05-14T16:10:34.053Z,31.60
2023-05-14T16:13:02.459Z,31.67
2023-05-14T16:15:32.421Z,32.26
2023-05-14T16:18:01.659Z,32.86
2023-05-14T16:20:30.343Z,32.35
2023-05-14T16:22:58.732Z,32.78
2023-05-14T16:25:27.431Z,32.35
2023-05-14T16:27:56.165Z,32.06
2023-05-14T16:30:24.780Z,31.84
2023-05-14T16:32:55.123Z,31.54
2023-05-14T16:35:23.596Z,31.24
2023-05-14T16:37:52.101Z,31.72
2023-05-14T16:40:21.956Z,31.60
2023-05-14T16:42:51.169Z,32.33
2023-05-14T16:45:19.649Z,32.19
2023-05-14T16:47:48.171Z,32.11
2023-05-14T16:50:18.424Z,32.29
2023-05-14T16:52:46.831Z,32.72
2023-05-14T16:55:15.596Z,32.54
2023-05-14T16:57:45.044Z,32.80
2023-05-14T17:00:15.410Z,32.80
2023-05-14T17:02:44.007Z,32.50
2023-05-14T17:05:12.475Z,32.61
2023-05-14T17:07:42.394Z,32.47
2023-05-14T17:10:12.013Z,32.65
2023-05-14T17:12:40.447Z,32.49
2023-05-14T17:15:10.925Z,32.79
2023-05-14T17:17:39.447Z,32.90
2023-05-14T17:20:09.269Z,32.79
2023-05-14T17:22:38.130Z,32.84
2023-05-14T17:25:10.169Z,32.84
2023-05-14T17:27:38.773Z,33.31
2023-05-14T17:30:09.321Z,33.41
2023-05-14T17:32:38.156Z,33.31
2023-05-14T17:35:09.775Z,33.28
2023-05-14T17:37:38.177Z,33.33
2023-05-14T17:40:10.134Z,32.87
2023-05-14T17:42:38.556Z,32.86
2023-05-14T17:45:08.966Z,33.53
2023-05-14T17:47:37.733Z,33.19
2023-05-14T17:50:07.776Z,33.47
2023-05-14T17:52:36.899Z,33.08
2023-05-14T17:55:07.592Z,33.01
2023-05-14T17:57:36.076Z,33.38
2023-05-14T18:00:05.152Z,33.44
2023-05-14T18:02:33.605Z,33.32
2023-05-14T18:05:03.361Z,33.25
2023-05-14T18:07:31.845Z,32.97
2023-05-14T18:10:00.414Z,33.27
2023-05-14T18:12:30.431Z,33.25
2023-05-14T18:14:58.914Z,33.18
2023-05-14T18:17:27.780Z,33.33
2023-05-14T18:19:56.216Z,33.02
2023-05-14T18:22:24.846Z,33.57
2023-05-14T18:24:53.566Z,33.31
2023-05-14T18:27:22.046Z,33.11
2023-05-14T18:29:53.495Z,33.05
2023-05-14T18:32:22.259Z,32.89
2023-05-14T18:34:51.059Z,32.73
2023-05-14T18:37:19.618Z,32.99
2023-05-14T18:39:48.169Z,33.04
2023-05-14T18:42:16.887Z,33.33
2023-05-14T18:44:45.355Z,33.33
2023-05-14T18:47:15.605Z,33.42
2023-05-14T18:49:44.112Z,33.36
2023-05-14T18:52:12.637Z,33.31
2023-05-14T18:54:41.089Z,33.29
2023-05-14T18:57:09.470Z,33.53
2023-05-14T18:59:38.020Z,33.46
2023-05-14T19:02:06.862Z,33.60
2023-05-14T19:04:50.555Z,33.40
2023-05-14T19:07:20.100Z,33.67
2023-05-14T19:09:48.675Z,34.04
2023-05-14T19:12:17.335Z,34.30
2023-05-14T19:14:45.854Z,33.93
2023-05-14T19:17:14.279Z,34.12
2023-05-14T19:19:44.127Z,34.65
2023-05-14T19:22:12.768Z,34.41
2023-05-14T19:24:41.276Z,34.72
2023-05-14T19:27:10.145Z,34.46
2023-05-14T19:29:38.702Z,34.56
2023-05-14T19:32:09.166Z,34.45
2023-05-14T19:34:37.875Z,34.82
2023-05-14T19:37:07.949Z,35.06
2023-05-14T19:39:36.694Z,35.15
2023-05-14T19:42:05.465Z,35.15
2023-05-14T19:44:34.048Z,35.53
2023-05-14T19:47:02.543Z,35.36
2023-05-14T19:49:31.087Z,35.61
2023-05-14T19:51:59.508Z,35.08
2023-05-14T19:54:29.468Z,35.42
2023-05-14T19:56:57.872Z,35.90
2023-05-14T19:59:26.590Z,35.52
2023-05-14T20:01:55.120Z,35.85
2023-05-14T20:04:23.557Z,35.97
2023-05-14T20:06:52.787Z,35.97
2023-05-14T20:09:21.255Z,36.25
2023-05-14T20:11:51.249Z,36.10
2023-05-14T20:14:19.706Z,36.22
2023-05-14T20:16:50.828Z,36.25
2023-05-14T20:19:21.435Z,36.22
2023-05-14T20:21:49.978Z,36.15
2023-05-14T20:24:18.507Z,36.29
2023-05-14T20:26:46.879Z,36.67
2023-05-14T20:29:16.927Z,36.47
2023-05-14T20:31:45.375Z,36.51
2023-05-14T20:34:13.799Z,37.14
2023-05-14T20:36:42.574Z,36.36
2023-05-14T20:39:11.826Z,36.43
2023-05-14T20:41:40.260Z,36.80
2023-05-14T20:44:08.749Z,36.98
2023-05-14T20:46:38.930Z,36.99
2023-05-14T20:49:07.462Z,36.97
2023-05-14T20:51:35.908Z,37.15
2023-05-14T20:54:04.374Z,36.36
2023-05-14T20:56:32.813Z,36.58
2023-05-14T20:59:01.459Z,36.51
2023-05-14T21:01:30.026Z,36.57
2023-05-14T21:04:00.079Z,36.75
2023-05-14T21:06:28.635Z,36.31
2023-05-14T21:08:57.235Z,36.29
2023-05-14T21:11:25.706Z,36.39
2023-05-14T21:13:54.454Z,36.81
2023-05-14T21:16:23.233Z,36.93
2023-05-14T21:18:51.806Z,36.84
2023-05-14T21:21:21.720Z,36.82
2023-05-14T21:23:50.492Z,36.77
2023-05-14T21:26:19.036Z,36.94
2023-05-14T21:28:47.488Z,36.87
2023-05-14T21:31:16.149Z,36.82
2023-05-14T21:33:44.635Z,36.74
2023-05-14T21:36:13.029Z,37.36
2023-05-14T21:38:42.941Z,36.85
2023-05-14T21:41:11.475Z,37.60
2023-05-14T21:43:40.743Z,37.12
2023-05-14T21:46:09.214Z,37.43
2023-05-14T21:48:37.783Z,37.34
2023-05-14T21:51:07.599Z,37.68
2023-05-14T21:53:35.981Z,37.75
2023-05-14T21:56:08.387Z,37.58
2023-05-14T21:58:37.220Z,37.95
2023-05-14T22:01:05.846Z,37.72
2023-05-14T22:03:34.528Z,38.01
2023-05-14T22:06:02.997Z,37.39
2023-05-14T22:08:32.394Z,37.89
2023-05-14T22:11:00.768Z,37.68
2023-05-14T22:13:30.793Z,37.91
2023-05-14T22:16:11.660Z,37.72
2023-05-14T22:18:41.149Z,37.89
2023-05-14T22:21:09.653Z,37.99
2023-05-14T22:23:38.115Z,38.05
2023-05-14T22:26:06.777Z,37.95
2023-05-14T22:28:39.839Z,37.99
2023-05-14T22:31:08.606Z,37.93
2023-05-14T22:33:37.409Z,38.23
2023-05-14T22:36:07.054Z,37.96
2023-05-14T22:38:35.557Z,38.31
2023-05-14T22:41:04.077Z,38.42
2023-05-14T22:43:32.502Z,38.43
2023-05-14T22:46:02.709Z,38.35
2023-05-14T22:48:31.380Z,38.05
2023-05-14T22:50:59.760Z,38.36
2023-05-14T22:53:28.187Z,38.01
2023-05-14T22:55:56.604Z,38.20
2023-05-14T22:58:25.129Z,37.80
2023-05-14T23:00:53.802Z,38.26
2023-05-14T23:03:23.569Z,38.21
2023-05-14T23:05:52.256Z,37.84
2023-05-14T23:08:20.607Z,37.89
2023-05-14T23:10:48.960Z,37.86
2023-05-14T23:13:18.051Z,37.77
2023-05-14T23:15:46.428Z,38.10
2023-05-14T23:18:15.113Z,37.52
2023-05-14T23:20:44.939Z,38.00
2023-05-14T23:23:13.525Z,38.12
2023-05-14T23:25:41.882Z,37.86
2023-05-14T23:28:10.854Z,38.06
2023-05-14T23:30:41.986Z,38.10
2023-05-14T23:33:10.470Z,38.09
2023-05-14T23:35:39.649Z,38.18
2023-05-14T23:38:09.407Z,38.15
2023-05-14T23:40:38.219Z,37.86
2023-05-14T23:43:06.886Z,38.08
2023-05-14T23:45:35.254Z,38.04
2023-05-14T23:48:04.192Z,37.90
2023-05-14T23:50:32.615Z,37.97
2023-05-14T23:53:00.966Z,38.33
2023-05-14T23:55:31.149Z,37.92
2023-05-14T23:57:59.581Z,38.08
